KWLD/WLD METAR and TAF weather

Enter ICAO airport designator
Station Type Date Time Source
KWLD METAR 2022/08/12 13:54 UTC NOAA

KWLD 121354Z AUTO 11004KT 10SM CLR 24/16 A3016 RMK AO2 SLP200 T02390156


Station Type Date Time Source
KWLD Decoded METAR 2022/08/12 13:54 UTC NOAA

STROTHER FIELD, KS, United States (KWLD) 37-10N 97-02W 350M
Aug 12, 2022 - 09:54 AM EDT / 2022.08.12 1354 UTC
Wind: from the ESE (110 degrees) at 5 MPH (4 KT):0
Visibility: 10 mile(s):0
Sky conditions: clear
Temperature: 75.0 F (23.9 C)
Dew Point: 60.1 F (15.6 C)
Relative Humidity: 59%
Pressure (altimeter): 30.16 in. Hg (1021 hPa)
ob: KWLD 121354Z AUTO 11004KT 10SM CLR 24/16 A3016 RMK AO2 SLP200 T02390156
cycle: 14

Station Type Date Time Source
KWLD TAF UTC NOAA

Error!

Example: see airport list